Time;durP1;ratioP1;P1;durP2;ratioP2;P2;SDS_P1;SDS_P2;PMS_P1;PMS_P2;Temp;Humidity;BMP_temperature;BMP_pressure;BME280_temperature;BME280_humidity;BME280_pressure;Samples;Min_cycle;Max_cycle;Signal;HPM_P1;HPM_P2
2021/01/21 00:01:39;;;;;;;3.70;2.47;;;4.90;99.90;;;;;;5038147;28;20504;-85
2021/01/21 00:04:06;;;;;;;8.70;4.10;;;5.40;99.90;;;;;;5036185;28;20510;-86
2021/01/21 00:06:34;;;;;;;4.93;2.30;;;5.30;99.90;;;;;;5034932;28;20466;-85
2021/01/21 00:09:01;;;;;;;5.67;3.27;;;5.50;99.90;;;;;;5036217;28;20443;-86
2021/01/21 00:11:27;;;;;;;8.50;4.50;;;5.40;99.90;;;;;;5036201;28;20501;-85
2021/01/21 00:13:54;;;;;;;6.20;3.67;;;5.60;99.90;;;;;;5034092;28;20448;-84
2021/01/21 00:16:20;;;;;;;3.80;2.53;;;5.40;99.90;;;;;;5034618;28;20935;-85
2021/01/21 00:18:47;;;;;;;2.37;1.90;;;;;;;;;;5035435;28;20466;-85
2021/01/21 00:21:14;;;;;;;4.90;3.70;;;;;;;;;;5035927;28;20474;-84
2021/01/21 00:23:40;;;;;;;6.20;4.87;;;5.50;99.90;;;;;;5034732;28;20501;-86
2021/01/21 00:26:06;;;;;;;2.10;1.80;;;5.80;99.90;;;;;;5032881;28;20497;-85
2021/01/21 00:28:33;;;;;;;4.70;3.03;;;;;;;;;;5035903;28;20450;-87
2021/01/21 00:31:00;;;;;;;3.17;2.30;;;5.80;99.90;;;;;;5035919;28;20454;-86
2021/01/21 00:33:26;;;;;;;1.70;1.33;;;5.80;99.90;;;;;;5035444;28;20470;-84
2021/01/21 00:35:53;;;;;;;4.03;1.43;;;;;;;;;;5035879;28;20451;-85
2021/01/21 00:38:19;;;;;;;2.03;1.47;;;5.80;99.90;;;;;;5034587;28;20821;-85
2021/01/21 00:40:45;;;;;;;2.90;1.80;;;;;;;;;;5035795;28;20455;-87
2021/01/21 00:43:12;;;;;;;2.13;1.20;;;5.80;99.90;;;;;;5035629;28;20993;-86
2021/01/21 00:45:38;;;;;;;3.20;1.63;;;5.80;99.90;;;;;;5035670;28;20810;-88
2021/01/21 00:48:06;;;;;;;1.47;1.37;;;5.80;99.90;;;;;;5035576;28;20452;-86
2021/01/21 00:50:32;;;;;;;1.87;1.53;;;6.10;99.90;;;;;;5035577;28;20474;-88
2021/01/21 00:52:59;;;;;;;3.57;1.37;;;6.10;99.90;;;;;;5034372;28;20440;-86
2021/01/21 00:55:25;;;;;;;2.60;1.50;;;6.20;99.90;;;;;;5035540;28;20455;-86
2021/01/21 00:57:52;;;;;;;1.70;1.23;;;6.20;99.90;;;;;;5035140;28;20490;-86
2021/01/21 01:00:20;;;;;;;2.30;1.30;;;6.20;99.00;;;;;;5034495;28;20458;-87
2021/01/21 01:02:46;;;;;;;1.73;1.10;;;;;;;;;;5034948;28;21044;-86
2021/01/21 01:05:14;;;;;;;2.43;1.57;;;6.00;99.90;;;;;;5035403;28;20928;-86
2021/01/21 01:07:41;;;;;;;2.30;1.30;;;;;;;;;;5034060;28;20565;-86
2021/01/21 01:10:08;;;;;;;5.30;1.67;;;5.90;99.90;;;;;;5035279;28;20803;-87
2021/01/21 01:12:35;;;;;;;1.60;1.13;;;6.00;99.90;;;;;;5035276;28;20486;-87
2021/01/21 01:15:03;;;;;;;2.20;1.50;;;6.20;99.90;;;;;;5035152;28;20481;-87
2021/01/21 01:17:29;;;;;;;1.60;1.03;;;6.40;99.90;;;;;;5034628;28;20452;-86
2021/01/21 01:19:55;;;;;;;1.53;1.20;;;7.20;99.90;;;;;;5035304;28;20452;-88
2021/01/21 01:22:22;;;;;;;1.97;1.50;;;6.20;98.60;;;;;;5033706;28;20827;-86
2021/01/21 01:24:49;;;;;;;3.10;1.20;;;;;;;;;;5034976;28;20493;-86
2021/01/21 01:27:15;;;;;;;1.60;1.13;;;6.80;99.90;;;;;;5035016;28;20451;-85
2021/01/21 01:29:41;;;;;;;1.27;1.17;;;6.90;99.90;;;;;;5038354;28;20451;-87
2021/01/21 01:32:07;;;;;;;1.60;0.90;;;6.90;99.90;;;;;;5034800;28;20451;-87
2021/01/21 01:34:34;;;;;;;1.00;0.90;;;7.00;99.90;;;;;;5034417;28;20805;-88
2021/01/21 01:37:00;;;;;;;1.40;0.97;;;7.40;99.90;;;;;;5033264;28;20459;-87
2021/01/21 01:39:27;;;;;;;1.17;1.00;;;7.10;99.90;;;;;;5034617;28;20478;-88
2021/01/21 01:41:53;;;;;;;1.07;0.97;;;7.40;99.90;;;;;;5034644;28;20498;-86
2021/01/21 01:44:19;;;;;;;2.20;1.17;;;7.10;99.90;;;;;;5034519;28;20498;-86
2021/01/21 01:46:45;;;;;;;2.63;1.23;;;7.30;99.90;;;;;;5034341;28;20444;-87
2021/01/21 01:49:12;;;;;;;2.80;1.33;;;7.10;99.90;;;;;;5033993;28;20452;-86
2021/01/21 01:51:43;;;;;;;2.67;1.20;;;;;;;;;;5033051;28;20452;-86
2021/01/21 01:54:10;;;;;;;1.53;1.03;;;7.10;96.10;;;;;;5034345;28;20458;-85
2021/01/21 01:56:39;;;;;;;1.90;1.00;;;6.90;99.90;;;;;;5033959;28;20490;-84
2021/01/21 01:59:06;;;;;;;3.17;1.43;;;7.00;99.90;;;;;;5034173;28;20583;-87
2021/01/21 02:01:33;;;;;;;1.87;1.10;;;6.70;99.90;;;;;;5034436;28;20452;-86
2021/01/21 02:04:00;;;;;;;0.70;0.50;;;6.40;99.90;;;;;;5034204;28;20487;-86
2021/01/21 02:06:26;;;;;;;1.83;0.83;;;7.10;99.90;;;;;;5033806;28;20451;-86
2021/01/21 02:08:53;;;;;;;1.30;1.00;;;7.10;99.70;;;;;;5034177;28;20519;-87
2021/01/21 02:11:32;;;;;;;2.97;1.60;;;7.20;99.90;;;;;;5034200;28;20456;-87
2021/01/21 02:14:03;;;;;;;1.60;1.00;;;7.60;99.90;;;;;;5034389;28;20451;-87
2021/01/21 02:16:39;;;;;;;2.13;1.17;;;7.00;99.90;;;;;;5031819;28;20504;-85
2021/01/21 02:19:44;;;;;;;1.70;1.13;;;7.40;99.90;;;;;;5034243;28;20455;-87
2021/01/21 02:22:53;;;;;;;2.53;1.27;;;7.10;99.90;;;;;;5032853;28;20454;-88
2021/01/21 02:25:21;;;;;;;1.57;1.30;;;7.00;99.90;;;;;;5026677;28;20471;-87
2021/01/21 02:28:14;;;;;;;5.07;1.80;;;6.90;99.90;;;;;;5034051;28;20521;-87
2021/01/21 02:30:58;;;;;;;1.23;1.13;;;7.40;99.90;;;;;;5034028;28;20509;-86
2021/01/21 02:33:44;;;;;;;2.87;1.40;;;6.80;99.90;;;;;;5033919;28;20458;-86
2021/01/21 02:36:16;;;;;;;2.00;1.60;;;6.90;99.90;;;;;;5034281;28;20439;-87
2021/01/21 02:38:45;;;;;;;2.63;1.70;;;6.60;99.90;;;;;;5035318;28;20443;-86
2021/01/21 02:41:12;;;;;;;2.37;1.67;;;7.10;99.90;;;;;;5035228;28;20447;-86
2021/01/21 02:43:40;;;;;;;1.00;0.87;;;7.20;99.90;;;;;;5033443;28;20478;-86
2021/01/21 02:46:06;;;;;;;0.90;0.60;;;7.20;99.90;;;;;;5033632;28;20454;-86
2021/01/21 02:48:34;;;;;;;3.27;1.17;;;7.20;99.90;;;;;;5033445;28;20455;-86
2021/01/21 02:51:07;;;;;;;1.10;1.00;;;7.10;96.10;;;;;;5033442;28;20455;-86
2021/01/21 02:53:36;;;;;;;1.47;0.93;;;7.30;99.90;;;;;;5032242;28;20451;-87
2021/01/21 02:56:06;;;;;;;3.83;0.60;;;7.30;99.90;;;;;;5033336;28;20525;-87
2021/01/21 02:58:36;;;;;;;2.67;1.70;;;7.30;97.40;;;;;;5036814;28;20491;-86
2021/01/21 03:01:05;;;;;;;0.90;0.70;;;7.20;95.60;;;;;;5033286;28;20452;-87
2021/01/21 03:03:33;;;;;;;1.87;1.33;;;7.30;99.90;;;;;;5032775;28;20495;-86
2021/01/21 03:06:02;;;;;;;3.03;1.50;;;7.60;99.90;;;;;;5032982;28;20526;-86
2021/01/21 03:08:29;;;;;;;1.43;0.80;;;7.10;99.90;;;;;;5031919;28;20498;-87
2021/01/21 03:11:07;;;;;;;1.40;1.03;;;7.30;95.60;;;;;;5033082;28;20456;-87
2021/01/21 03:13:34;;;;;;;1.77;0.80;;;7.20;99.90;;;;;;5033095;28;20927;-86
2021/01/21 03:16:01;;;;;;;1.83;1.13;;;;;;;;;;5033017;28;20951;-86
2021/01/21 03:18:27;;;;;;;2.20;1.43;;;7.10;99.90;;;;;;5032963;28;20862;-88
2021/01/21 03:20:53;;;;;;;1.70;1.00;;;7.30;99.90;;;;;;5032969;28;21024;-85
2021/01/21 03:23:20;;;;;;;1.23;1.10;;;7.10;95.60;;;;;;5031353;28;20486;-87
2021/01/21 03:25:48;;;;;;;1.37;1.10;;;7.00;99.90;;;;;;5032920;28;20459;-87
2021/01/21 03:28:14;;;;;;;1.90;1.00;;;7.20;99.90;;;;;;5032850;28;20474;-87
2021/01/21 03:30:40;;;;;;;1.07;0.90;;;7.20;99.90;;;;;;5032947;28;20447;-87
2021/01/21 03:33:07;;;;;;;1.63;1.10;;;;;;;;;;5032845;28;20471;-85
2021/01/21 03:35:33;;;;;;;0.80;0.50;;;7.40;99.90;;;;;;5032842;28;20501;-87
2021/01/21 03:37:59;;;;;;;4.67;1.17;;;7.30;99.90;;;;;;5031701;28;20443;-88
2021/01/21 03:40:27;;;;;;;1.67;0.73;;;7.60;99.90;;;;;;5030441;28;20799;-86
2021/01/21 03:42:53;;;;;;;1.70;1.03;;;7.50;99.90;;;;;;5032446;28;20439;-87
2021/01/21 03:45:20;;;;;;;1.00;0.90;;;;;;;;;;5032726;28;20452;-86
2021/01/21 03:47:46;;;;;;;1.33;0.60;;;7.50;99.90;;;;;;5032610;28;20498;-87
2021/01/21 03:50:13;;;;;;;1.13;0.70;;;7.50;99.90;;;;;;5032836;28;20462;-87
2021/01/21 03:52:40;;;;;;;0.90;0.73;;;7.50;99.90;;;;;;5031509;28;20474;-87
2021/01/21 03:55:07;;;;;;;1.13;0.77;;;8.20;99.90;;;;;;5032584;28;20463;-85
2021/01/21 03:57:34;;;;;;;1.40;1.00;;;7.50;99.90;;;;;;5032501;28;20486;-86
2021/01/21 04:00:01;;;;;;;1.50;0.80;;;7.70;99.90;;;;;;5032627;28;20448;-85
2021/01/21 04:02:27;;;;;;;0.87;0.80;;;7.50;99.90;;;;;;4995330;28;20443;-86
2021/01/21 04:04:53;;;;;;;2.10;1.27;;;7.80;99.90;;;;;;5032168;28;20529;-87
2021/01/21 04:07:20;;;;;;;0.73;0.73;;;7.60;99.90;;;;;;5028879;28;20444;-87
2021/01/21 04:09:46;;;;;;;1.37;0.83;;;8.00;99.90;;;;;;5037672;28;20458;-85
2021/01/21 04:12:12;;;;;;;1.40;0.97;;;7.40;99.90;;;;;;5042785;28;20938;-85
2021/01/21 04:14:39;;;;;;;2.30;1.17;;;7.50;99.90;;;;;;5041350;28;20445;-85
2021/01/21 04:17:05;;;;;;;1.70;1.03;;;7.20;99.90;;;;;;5041229;28;20439;-85
2021/01/21 04:19:31;;;;;;;1.83;1.13;;;7.40;99.90;;;;;;5042911;28;20443;-85
2021/01/21 04:21:58;;;;;;;1.67;1.00;;;7.40;95.80;;;;;;5040346;28;20467;-86
2021/01/21 04:24:24;;;;;;;0.90;0.70;;;7.20;99.90;;;;;;5041482;28;20486;-87
2021/01/21 04:26:50;;;;;;;1.07;0.80;;;;;;;;;;5040718;28;20553;-85
2021/01/21 04:29:17;;;;;;;1.00;0.80;;;7.30;99.90;;;;;;5041185;28;20454;-84
2021/01/21 04:31:44;;;;;;;0.90;0.70;;;7.30;99.90;;;;;;5041601;28;20435;-86
2021/01/21 04:34:10;;;;;;;1.00;0.73;;;7.20;99.90;;;;;;5042983;28;20439;-86
2021/01/21 04:36:37;;;;;;;1.10;0.90;;;7.60;99.90;;;;;;5045038;28;20953;-85
2021/01/21 04:39:04;;;;;;;0.80;0.70;;;7.30;99.90;;;;;;5045361;28;20440;-85
2021/01/21 04:41:31;;;;;;;2.60;0.90;;;7.60;99.90;;;;;;5043807;28;20460;-85
2021/01/21 04:43:57;;;;;;;1.43;0.77;;;7.70;99.90;;;;;;5045723;28;20490;-85
2021/01/21 04:46:23;;;;;;;1.67;0.90;;;7.50;99.90;;;;;;5045298;28;20443;-86
2021/01/21 04:48:51;;;;;;;1.07;0.60;;;7.40;99.90;;;;;;5038813;28;20448;-86
2021/01/21 04:51:18;;;;;;;1.47;0.90;;;7.40;99.90;;;;;;5035724;28;20440;-86
2021/01/21 04:53:49;;;;;;;2.50;0.77;;;7.80;94.90;;;;;;5034333;28;20509;-85
2021/01/21 04:56:23;;;;;;;0.50;0.40;;;8.00;99.90;;;;;;5035516;28;20471;-85
2021/01/21 04:58:51;;;;;;;1.27;0.77;;;7.80;99.90;;;;;;5035370;28;20537;-85
2021/01/21 05:01:18;;;;;;;1.10;0.80;;;7.90;99.90;;;;;;5035648;28;20452;-86
2021/01/21 05:03:45;;;;;;;1.00;0.53;;;7.80;99.90;;;;;;5035377;28;20863;-84
2021/01/21 05:06:13;;;;;;;1.43;0.77;;;7.90;99.90;;;;;;5034189;28;20458;-84
2021/01/21 05:08:41;;;;;;;0.73;0.63;;;8.20;99.90;;;;;;5034327;28;20452;-85
2021/01/21 05:11:07;;;;;;;1.10;0.80;;;;;;;;;;5035226;28;20466;-84
2021/01/21 05:13:34;;;;;;;1.00;0.60;;;7.90;99.90;;;;;;5035331;28;20456;-86
2021/01/21 05:16:00;;;;;;;2.57;1.30;;;8.40;99.90;;;;;;5035218;28;20862;-85
2021/01/21 05:18:33;;;;;;;1.37;0.80;;;8.20;99.90;;;;;;5034898;28;20505;-84
2021/01/21 05:21:00;;;;;;;1.07;0.77;;;8.20;99.90;;;;;;5035335;28;20786;-86
2021/01/21 05:23:28;;;;;;;1.43;0.90;;;8.40;94.80;;;;;;4999074;28;20483;-86
2021/01/21 05:25:55;;;;;;;2.50;1.40;;;8.50;99.90;;;;;;5034976;28;20466;-85
2021/01/21 05:28:22;;;;;;;1.30;1.13;;;;;;;;;;5035100;28;20935;-85
2021/01/21 05:30:49;;;;;;;1.00;0.60;;;8.10;99.90;;;;;;5035148;28;20891;-86
2021/01/21 05:33:16;;;;;;;0.50;0.40;;;8.00;99.80;;;;;;5035164;28;20451;-86
2021/01/21 05:35:42;;;;;;;1.00;0.90;;;8.50;99.90;;;;;;5034943;28;20476;-87
2021/01/21 05:38:10;;;;;;;0.90;0.80;;;8.10;99.90;;;;;;5033602;28;20447;-85
2021/01/21 05:40:37;;;;;;;2.07;1.73;;;8.30;93.80;;;;;;5034963;28;20524;-85
2021/01/21 05:43:04;;;;;;;1.20;1.10;;;8.20;99.90;;;;;;5034802;28;20460;-85
2021/01/21 05:45:30;;;;;;;0.80;0.73;;;8.40;99.90;;;;;;5034458;28;20447;-85
2021/01/21 05:47:57;;;;;;;1.57;1.07;;;8.40;94.00;;;;;;5034902;28;20447;-85
2021/01/21 05:50:25;;;;;;;0.97;0.50;;;8.50;99.40;;;;;;5034864;28;20448;-85
2021/01/21 05:52:52;;;;;;;0.50;0.40;;;8.40;99.20;;;;;;5033330;28;20448;-85
2021/01/21 05:55:19;;;;;;;0.40;0.30;;;8.60;99.90;;;;;;5037627;28;20475;-86
2021/01/21 05:57:47;;;;;;;1.60;0.73;;;8.20;99.90;;;;;;5035100;28;20487;-86
2021/01/21 06:00:16;;;;;;;1.20;0.93;;;8.60;99.90;;;;;;5039022;28;20448;-85
2021/01/21 06:02:44;;;;;;;1.63;0.90;;;8.40;99.90;;;;;;5044961;28;20451;-85
2021/01/21 06:05:14;;;;;;;0.83;0.70;;;8.80;99.90;;;;;;5036793;28;20491;-86
2021/01/21 06:07:40;;;;;;;0.97;0.70;;;8.30;99.90;;;;;;5032964;28;20444;-89
2021/01/21 06:10:09;;;;;;;1.50;1.00;;;8.10;94.30;;;;;;5034114;28;20457;-87
2021/01/21 06:12:36;;;;;;;3.13;2.93;;;7.50;99.90;;;;;;5034221;28;20450;-86
2021/01/21 06:15:05;;;;;;;1.83;1.00;;;8.10;99.90;;;;;;5035812;28;20947;-85
2021/01/21 06:17:31;;;;;;;1.30;1.20;;;7.80;99.90;;;;;;5034097;28;20451;-84
2021/01/21 06:19:57;;;;;;;1.80;0.73;;;8.20;99.90;;;;;;5033838;28;20471;-85
2021/01/21 06:22:28;;;;;;;1.03;0.73;;;8.10;99.90;;;;;;5032502;28;20454;-86
2021/01/21 06:24:59;;;;;;;1.13;0.70;;;8.20;99.90;;;;;;5033741;28;20498;-86
2021/01/21 06:27:26;;;;;;;0.90;0.77;;;8.10;99.90;;;;;;5033804;28;20509;-87
2021/01/21 06:29:55;;;;;;;2.83;1.43;;;8.30;99.90;;;;;;5033826;28;20455;-85
2021/01/21 06:32:28;;;;;;;1.97;1.20;;;8.10;99.90;;;;;;5033705;28;20451;-87
2021/01/21 06:34:59;;;;;;;1.20;0.80;;;8.20;93.40;;;;;;5033357;28;20451;-84
2021/01/21 06:37:28;;;;;;;0.90;0.53;;;8.10;99.60;;;;;;5050448;28;20941;-85
2021/01/21 06:40:01;;;;;;;0.90;0.73;;;8.20;99.90;;;;;;5045877;28;20859;-84
2021/01/21 06:42:30;;;;;;;3.60;0.93;;;8.30;99.90;;;;;;5042784;28;20447;-87
2021/01/21 06:44:57;;;;;;;0.60;0.40;;;8.70;99.90;;;;;;5043586;28;20487;-87
2021/01/21 06:47:25;;;;;;;1.03;0.70;;;8.50;99.90;;;;;;5043990;28;20455;-85
2021/01/21 06:49:55;;;;;;;1.00;0.60;;;8.70;99.90;;;;;;5043030;28;20498;-86
2021/01/21 06:52:22;;;;;;;0.70;0.63;;;9.00;99.90;;;;;;5033915;28;20490;-88
2021/01/21 06:54:49;;;;;;;0.47;0.37;;;9.10;99.60;;;;;;5034634;28;20474;-85
2021/01/21 06:57:43;;;;;;;1.77;0.80;;;8.90;99.90;;;;;;5041147;28;20504;-88
2021/01/21 07:00:12;;;;;;;0.80;0.53;;;8.60;93.10;;;;;;5032714;28;20439;-86
2021/01/21 07:02:45;;;;;;;0.47;0.43;;;8.90;99.90;;;;;;5032660;28;20447;-86
2021/01/21 07:05:14;;;;;;;1.13;0.77;;;8.80;99.90;;;;;;5040657;28;20526;-87
2021/01/21 07:08:06;;;;;;;0.67;0.60;;;9.00;99.90;;;;;;5031465;28;20475;-85
2021/01/21 07:10:38;;;;;;;0.70;0.67;;;9.10;98.50;;;;;;5033281;28;20502;-84
2021/01/21 07:13:06;;;;;;;1.50;0.63;;;9.10;99.90;;;;;;5033210;28;20806;-86
2021/01/21 07:15:40;;;;;;;0.70;0.50;;;8.80;99.90;;;;;;5033087;28;20790;-84
2021/01/21 07:18:12;;;;;;;1.30;0.40;;;9.00;99.90;;;;;;5033177;28;20447;-85
2021/01/21 07:21:13;;;;;;;0.77;0.60;;;8.80;99.90;;;;;;5032962;28;20974;-85
2021/01/21 07:23:42;;;;;;;0.80;0.63;;;8.60;99.90;;;;;;5035059;28;20478;-86
2021/01/21 07:26:30;;;;;;;1.27;0.50;;;9.00;99.90;;;;;;5034426;28;20960;-85
2021/01/21 07:29:03;;;;;;;0.50;0.40;;;9.00;99.90;;;;;;5032536;28;20472;-87
2021/01/21 07:31:30;;;;;;;2.77;0.67;;;8.90;99.90;;;;;;5032893;28;20454;-86
2021/01/21 07:34:24;;;;;;;1.17;0.87;;;8.70;99.90;;;;;;5032808;28;20954;-85
2021/01/21 07:37:10;;;;;;;1.10;0.50;;;9.00;99.90;;;;;;4996540;28;20446;-84
2021/01/21 07:39:50;;;;;;;1.00;0.90;;;9.00;99.90;;;;;;5032780;28;20448;-87
2021/01/21 07:42:16;;;;;;;0.93;0.57;;;;;;;;;;5032780;28;20789;-86
2021/01/21 07:44:57;;;;;;;0.80;0.67;;;9.00;99.90;;;;;;5032787;28;20554;-87
2021/01/21 07:47:28;;;;;;;0.60;0.43;;;9.40;99.90;;;;;;5032652;28;20943;-84
2021/01/21 07:50:29;;;;;;;0.40;0.30;;;9.00;99.90;;;;;;5032382;28;20448;-87
2021/01/21 07:52:57;;;;;;;1.37;0.60;;;8.70;99.90;;;;;;5019396;28;20454;-83
2021/01/21 07:55:27;;;;;;;1.47;0.70;;;8.80;99.90;;;;;;5052418;28;20439;-85
2021/01/21 07:57:54;;;;;;;0.70;0.57;;;;;;;;;;5037892;28;20833;-85
2021/01/21 08:00:21;;;;;;;0.73;0.50;;;9.00;99.90;;;;;;5032486;28;20448;-86
2021/01/21 08:02:48;;;;;;;0.50;0.47;;;9.20;99.90;;;;;;5032582;28;20447;-85
2021/01/21 08:05:15;;;;;;;0.90;0.40;;;8.80;99.90;;;;;;5032428;28;20490;-84
2021/01/21 08:07:47;;;;;;;0.60;0.53;;;9.20;99.90;;;;;;5031221;28;20451;-85
2021/01/21 08:10:15;;;;;;;2.70;1.70;;;9.20;99.90;;;;;;5046388;28;20467;-84
2021/01/21 08:12:41;;;;;;;0.50;0.50;;;9.00;99.90;;;;;;5036101;28;20451;-85
2021/01/21 08:15:16;;;;;;;0.60;0.50;;;9.10;99.90;;;;;;5046173;28;20962;-85
2021/01/21 08:17:43;;;;;;;0.70;0.60;;;;;;;;;;5056064;28;20441;-84
2021/01/21 08:20:10;;;;;;;0.80;0.53;;;9.20;99.90;;;;;;5056029;28;20443;-86
2021/01/21 08:22:53;;;;;;;1.37;0.57;;;9.70;99.90;;;;;;5054686;28;20450;-83
2021/01/21 08:25:19;;;;;;;3.50;0.80;;;9.80;99.90;;;;;;5055850;28;20551;-87
2021/01/21 08:27:47;;;;;;;0.70;0.40;;;9.50;99.90;;;;;;5047553;28;20515;-83
2021/01/21 08:30:19;;;;;;;0.83;0.30;;;9.70;99.90;;;;;;5038272;28;20455;-85
2021/01/21 08:32:48;;;;;;;1.27;0.70;;;10.30;99.30;;;;;;5036073;28;20444;-87
2021/01/21 08:35:17;;;;;;;0.70;0.50;;;10.10;99.90;;;;;;5035732;28;20444;-84
2021/01/21 08:37:44;;;;;;;1.10;0.60;;;10.00;99.60;;;;;;5050813;28;20857;-89
2021/01/21 08:40:13;;;;;;;1.97;0.47;;;10.00;99.90;;;;;;5055615;28;20439;-84
2021/01/21 08:42:40;;;;;;;0.70;0.60;;;;;;;;;;5055621;28;20454;-85
2021/01/21 08:45:07;;;;;;;1.10;0.63;;;9.40;99.90;;;;;;5044863;28;20545;-84
2021/01/21 08:47:55;;;;;;;1.17;0.60;;;9.70;99.90;;;;;;5035469;28;20451;-86
2021/01/21 08:50:22;;;;;;;0.60;0.50;;;9.40;99.90;;;;;;5031953;28;20448;-86
2021/01/21 08:52:59;;;;;;;0.93;0.47;;;9.10;99.90;;;;;;5039494;28;20459;-85
2021/01/21 08:55:37;;;;;;;0.50;0.40;;;9.40;99.90;;;;;;5043116;28;20803;-85
2021/01/21 08:58:04;;;;;;;0.60;0.50;;;9.10;99.90;;;;;;5035306;28;20479;-85
2021/01/21 09:00:31;;;;;;;0.93;0.53;;;9.00;99.90;;;;;;5034763;28;20459;-85
2021/01/21 09:02:58;;;;;;;0.77;0.57;;;;;;;;;;5038948;28;20940;-85
2021/01/21 09:05:24;;;;;;;1.00;0.43;;;;;;;;;;5046240;28;20491;-84
2021/01/21 09:07:51;;;;;;;0.93;0.73;;;10.10;99.90;;;;;;5034623;28;20493;-87
2021/01/21 09:10:18;;;;;;;0.70;0.60;;;;;;;;;;5035159;28;20447;-85
2021/01/21 09:12:45;;;;;;;0.70;0.70;;;10.30;99.70;;;;;;5053083;28;20446;-84
2021/01/21 09:15:14;;;;;;;4.57;0.70;;;10.50;99.90;;;;;;5053369;28;20454;-84
2021/01/21 09:17:41;;;;;;;1.50;1.37;;;11.00;98.70;;;;;;5054848;28;20799;-84
2021/01/21 09:20:24;;;;;;;1.00;0.90;;;11.70;99.90;;;;;;5041894;28;20509;-85
2021/01/21 09:22:50;;;;;;;1.20;1.10;;;11.10;99.90;;;;;;5032505;28;20988;-82
2021/01/21 09:25:23;;;;;;;1.80;1.40;;;11.60;99.90;;;;;;5029310;28;20495;-86
2021/01/21 09:27:53;;;;;;;0.80;0.80;;;11.40;99.90;;;;;;5034236;28;20464;-85
2021/01/21 09:30:21;;;;;;;1.27;0.90;;;11.40;99.90;;;;;;5034585;28;20998;-86
2021/01/21 09:32:47;;;;;;;3.33;1.33;;;;;;;;;;5034661;28;20501;-84
2021/01/21 09:35:15;;;;;;;1.67;0.97;;;11.00;99.90;;;;;;5034617;28;20443;-83
2021/01/21 09:37:43;;;;;;;0.87;0.60;;;11.20;99.90;;;;;;5033360;28;20458;-86
2021/01/21 09:40:11;;;;;;;1.07;0.80;;;11.20;99.90;;;;;;5033823;28;20447;-83
2021/01/21 09:42:38;;;;;;;1.70;0.93;;;;;;;;;;5034519;28;20573;-84
2021/01/21 09:45:07;;;;;;;1.37;0.87;;;11.10;99.10;;;;;;5034083;28;20602;-83
2021/01/21 09:47:33;;;;;;;2.23;1.30;;;;;;;;;;5034443;28;20454;-84
2021/01/21 09:50:00;;;;;;;0.97;0.50;;;;;;;;;;5034503;28;20470;-84
2021/01/21 09:52:27;;;;;;;0.60;0.33;;;;;;;;;;5033112;28;20466;-83
2021/01/21 09:54:54;;;;;;;1.33;0.77;;;;;;;;;;5045803;28;20454;-82
2021/01/21 09:57:20;;;;;;;1.87;0.70;;;11.80;99.90;;;;;;5053521;28;20985;-82
2021/01/21 09:59:47;;;;;;;0.70;0.50;;;;;;;;;;5054158;28;20461;-83
2021/01/21 10:02:14;;;;;;;1.53;0.87;;;12.00;99.90;;;;;;5052228;28;20457;-85
2021/01/21 10:04:41;;;;;;;6.60;2.30;;;;;;;;;;5033255;28;20495;-84
2021/01/21 10:07:08;;;;;;;2.97;1.20;;;12.20;99.90;;;;;;5032937;28;20456;-84
2021/01/21 10:09:35;;;;;;;3.93;1.00;;;12.50;98.70;;;;;;5033731;28;20946;-84
2021/01/21 10:12:01;;;;;;;0.80;0.70;;;12.80;99.90;;;;;;5033848;28;20452;-85
2021/01/21 10:14:28;;;;;;;1.10;0.73;;;12.50;99.90;;;;;;5033933;28;20998;-83
2021/01/21 10:16:55;;;;;;;1.10;0.73;;;;;;;;;;5033006;28;20454;-85
2021/01/21 10:19:22;;;;;;;1.40;0.93;;;12.60;97.00;;;;;;5034101;28;20509;-85
2021/01/21 10:21:49;;;;;;;1.17;0.60;;;;;;;;;;5035671;28;20575;-86
2021/01/21 10:24:15;;;;;;;1.03;0.50;;;12.40;99.90;;;;;;5036536;28;20487;-85
2021/01/21 10:26:41;;;;;;;0.53;0.40;;;;;;;;;;5034049;28;20459;-84
2021/01/21 10:29:08;;;;;;;0.97;0.87;;;;;;;;;;5033711;28;20451;-84
2021/01/21 10:31:35;;;;;;;0.50;0.50;;;;;;;;;;5033642;28;20471;-85
2021/01/21 10:34:02;;;;;;;0.70;0.40;;;11.50;98.70;;;;;;5033547;28;20459;-83
2021/01/21 10:36:29;;;;;;;0.73;0.40;;;11.20;99.20;;;;;;5032892;28;20487;-83
2021/01/21 10:38:56;;;;;;;0.87;0.70;;;;;;;;;;5033359;28;20939;-84
2021/01/21 10:41:23;;;;;;;0.77;0.60;;;;;;;;;;5033358;28;20955;-84
2021/01/21 10:43:49;;;;;;;0.93;0.73;;;;;;;;;;5033403;28;20495;-85
2021/01/21 10:46:16;;;;;;;0.67;0.57;;;;;;;;;;5033312;28;20444;-87
2021/01/21 10:48:43;;;;;;;0.40;0.30;;;;;;;;;;5033374;28;20448;-85
2021/01/21 10:51:09;;;;;;;0.80;0.50;;;;;;;;;;5035793;28;20470;-83
2021/01/21 10:53:37;;;;;;;0.60;0.50;;;10.60;99.90;;;;;;5041514;28;20451;-86
2021/01/21 10:56:03;;;;;;;0.50;0.40;;;;;;;;;;5053006;28;20442;-83
2021/01/21 10:58:30;;;;;;;1.10;0.60;;;;;;;;;;5036253;28;20507;-84
2021/01/21 11:00:56;;;;;;;3.10;0.70;;;11.30;99.90;;;;;;5033240;28;20786;-85
2021/01/21 11:03:23;;;;;;;0.50;0.30;;;11.10;99.90;;;;;;5033039;28;20473;-84
2021/01/21 11:05:50;;;;;;;0.73;0.73;;;;;;;;;;5033046;28;20454;-84
2021/01/21 11:08:16;;;;;;;12.87;8.70;;;;;;;;;;5031884;28;20447;-85
2021/01/21 11:10:44;;;;;;;51.00;33.97;;;11.50;99.90;;;;;;5049688;28;20529;-84
2021/01/21 11:13:17;;;;;;;8.73;7.20;;;;;;;;;;5052916;28;20520;-84
2021/01/21 11:15:43;;;;;;;3.27;1.80;;;;;;;;;;5043608;28;20507;-84
2021/01/21 11:18:11;;;;;;;3.73;3.00;;;11.20;99.90;;;;;;5033132;28;20462;-84
2021/01/21 11:20:38;;;;;;;3.00;2.20;;;;;;;;;;5032642;28;20451;-84
2021/01/21 11:23:04;;;;;;;15.83;2.13;;;;;;;;;;5030813;28;20478;-85
2021/01/21 11:25:31;;;;;;;3.30;2.30;;;11.00;99.90;;;;;;5032413;28;20491;-84
2021/01/21 11:27:58;;;;;;;3.00;2.53;;;11.00;99.90;;;;;;5032203;28;20462;-84
2021/01/21 11:30:25;;;;;;;1.57;1.47;;;11.90;99.90;;;;;;5032812;28;20525;-85
2021/01/21 11:32:51;;;;;;;0.90;0.70;;;;;;;;;;5038760;28;20462;-84
2021/01/21 11:35:18;;;;;;;1.17;0.93;;;11.70;99.90;;;;;;5049320;28;20453;-84
2021/01/21 11:37:44;;;;;;;1.20;1.00;;;11.10;99.90;;;;;;5053940;28;20454;-84
2021/01/21 11:40:11;;;;;;;1.33;1.23;;;11.40;99.90;;;;;;5072615;28;20442;-84
2021/01/21 11:42:38;;;;;;;1.83;0.90;;;;;;;;;;5072591;28;20445;-84
2021/01/21 11:45:06;;;;;;;0.87;0.70;;;11.00;99.90;;;;;;5075800;28;20524;-82
2021/01/21 11:47:33;;;;;;;2.80;1.10;;;10.70;99.90;;;;;;5076570;28;20815;-83
2021/01/21 11:50:00;;;;;;;3.70;1.00;;;;;;;;;;5073268;28;20447;-84
2021/01/21 11:52:27;;;;;;;5.00;1.93;;;11.10;99.90;;;;;;5051375;28;20545;-84
2021/01/21 11:54:53;;;;;;;1.20;1.00;;;;;;;;;;5045119;28;20458;-85
2021/01/21 11:57:20;;;;;;;1.47;0.90;;;;;;;;;;5056204;28;20490;-84
2021/01/21 11:59:46;;;;;;;2.17;1.20;;;11.40;99.90;;;;;;5042860;28;20451;-84
2021/01/21 12:02:14;;;;;;;1.60;1.20;;;11.00;99.90;;;;;;5036207;28;20874;-83
2021/01/21 12:04:40;;;;;;;1.30;1.20;;;;;;;;;;5039643;28;20501;-83
2021/01/21 12:07:06;;;;;;;1.00;0.60;;;11.20;99.90;;;;;;5040821;28;20447;-82
2021/01/21 12:09:33;;;;;;;0.90;0.73;;;;;;;;;;5046209;28;20458;-83
2021/01/21 12:11:59;;;;;;;0.80;0.60;;;11.00;99.90;;;;;;5036170;28;20455;-83
2021/01/21 12:14:25;;;;;;;1.17;0.90;;;11.40;99.90;;;;;;5053415;28;20530;-83
2021/01/21 12:16:52;;;;;;;1.17;0.90;;;;;;;;;;5055848;28;20458;-83
2021/01/21 12:19:19;;;;;;;0.70;0.53;;;11.10;99.90;;;;;;5056041;28;20446;-82
2021/01/21 12:21:45;;;;;;;2.17;0.90;;;;;;;;;;5053823;28;20446;-83
2021/01/21 12:24:12;;;;;;;1.20;0.80;;;11.10;99.90;;;;;;5040036;28;20501;-82
2021/01/21 12:26:38;;;;;;;0.90;0.80;;;;;;;;;;5050170;28;20442;-83
2021/01/21 12:29:05;;;;;;;0.70;0.60;;;;;;;;;;5058973;28;20446;-83
2021/01/21 12:31:31;;;;;;;1.03;0.73;;;11.40;99.90;;;;;;5043464;28;20461;-82
2021/01/21 12:33:57;;;;;;;0.80;0.70;;;;;;;;;;5048304;28;20480;-84
2021/01/21 12:36:25;;;;;;;0.50;0.50;;;11.40;99.90;;;;;;5055322;28;20474;-82
2021/01/21 12:38:51;;;;;;;0.80;0.60;;;11.50;99.90;;;;;;5054373;28;20450;-82
2021/01/21 12:41:17;;;;;;;0.60;0.50;;;;;;;;;;5055321;28;20504;-82
2021/01/21 12:43:44;;;;;;;0.70;0.50;;;;;;;;;;5055376;28;20450;-82
2021/01/21 12:46:10;;;;;;;0.80;0.60;;;11.00;99.90;;;;;;5055467;28;20450;-83
2021/01/21 12:48:37;;;;;;;0.80;0.57;;;;;;;;;;5055209;28;20451;-82
2021/01/21 12:51:03;;;;;;;1.80;0.77;;;11.00;99.90;;;;;;5055499;28;20454;-81
2021/01/21 12:53:30;;;;;;;1.00;0.50;;;11.60;99.90;;;;;;5054251;28;20473;-81
2021/01/21 12:55:57;;;;;;;0.87;0.60;;;;;;;;;;5054181;28;20451;-83
2021/01/21 12:58:23;;;;;;;2.57;1.07;;;;;;;;;;5054909;28;20482;-81
2021/01/21 13:00:50;;;;;;;1.47;0.70;;;;;;;;;;5055227;28;20446;-81
2021/01/21 13:03:18;;;;;;;0.50;0.30;;;;;;;;;;5047146;28;20451;-83
2021/01/21 13:05:45;;;;;;;1.27;0.70;;;;;;;;;;5035179;28;20569;-85
2021/01/21 13:08:11;;;;;;;1.03;0.70;;;;;;;;;;5034859;28;20447;-82
2021/01/21 13:10:38;;;;;;;0.70;0.60;;;11.00;99.90;;;;;;5035151;28;20505;-82
2021/01/21 13:13:05;;;;;;;1.90;0.50;;;;;;;;;;5035026;28;20501;-83
2021/01/21 13:15:31;;;;;;;1.77;0.70;;;;;;;;;;5035546;28;20458;-85
2021/01/21 13:17:58;;;;;;;0.80;0.73;;;;;;;;;;5035173;28;20474;-83
2021/01/21 13:20:24;;;;;;;2.03;0.67;;;;;;;;;;5036475;28;20945;-82
2021/01/21 13:22:51;;;;;;;1.83;0.90;;;10.70;99.90;;;;;;5034113;28;20501;-83
2021/01/21 13:25:17;;;;;;;1.77;0.90;;;;;;;;;;5038857;28;20489;-82